地図

経路データ

SID SEASON NUMBER BASIN SUBBASIN NAME ISO_TIME NATURE LAT LON WMO_WIND WMO_PRES WMO_AGENCY TRACK_TYPE DIST2LAND LANDFALL IFLAG USA_AGENCY USA_ATCF_ID USA_LAT USA_LON USA_RECORD USA_STATUS USA_WIND USA_PRES USA_SSHS USA_R34_NE USA_R34_SE USA_R34_SW USA_R34_NW USA_R50_NE USA_R50_SE USA_R50_SW USA_R50_NW USA_R64_NE USA_R64_SE USA_R64_SW USA_R64_NW USA_POCI USA_ROCI USA_RMW USA_EYE TOKYO_LAT TOKYO_LON TOKYO_GRADE TOKYO_WIND TOKYO_PRES TOKYO_R50_DIR TOKYO_R50_LONG TOKYO_R50_SHORT TOKYO_R30_DIR TOKYO_R30_LONG TOKYO_R30_SHORT TOKYO_LAND CMA_LAT CMA_LON CMA_CAT CMA_WIND CMA_PRES HKO_LAT HKO_LON HKO_CAT HKO_WIND HKO_PRES NEWDELHI_LAT NEWDELHI_LON NEWDELHI_GRADE NEWDELHI_WIND NEWDELHI_PRES NEWDELHI_CI NEWDELHI_DP NEWDELHI_POCI REUNION_LAT REUNION_LON REUNION_TYPE REUNION_WIND REUNION_PRES REUNION_TNUM REUNION_CI REUNION_RMW REUNION_R34_NE REUNION_R34_SE REUNION_R34_SW REUNION_R34_NW REUNION_R50_NE REUNION_R50_SE REUNION_R50_SW REUNION_R50_NW REUNION_R64_NE REUNION_R64_SE REUNION_R64_SW REUNION_R64_NW BOM_LAT BOM_LON BOM_TYPE BOM_WIND BOM_PRES BOM_TNUM BOM_CI BOM_RMW BOM_R34_NE BOM_R34_SE BOM_R34_SW BOM_R34_NW BOM_R50_NE BOM_R50_SE BOM_R50_SW BOM_R50_NW BOM_R64_NE BOM_R64_SE BOM_R64_SW BOM_R64_NW BOM_ROCI BOM_POCI BOM_EYE BOM_POS_METHOD BOM_PRES_METHOD NADI_LAT NADI_LON NADI_CAT NADI_WIND NADI_PRES WELLINGTON_LAT WELLINGTON_LON WELLINGTON_WIND WELLINGTON_PRES DS824_LAT DS824_LON DS824_STAGE DS824_WIND DS824_PRES TD9636_LAT TD9636_LON TD9636_STAGE TD9636_WIND TD9636_PRES TD9635_LAT TD9635_LON TD9635_WIND TD9635_PRES TD9635_ROCI NEUMANN_LAT NEUMANN_LON NEUMANN_CLASS NEUMANN_WIND NEUMANN_PRES MLC_LAT MLC_LON MLC_CLASS MLC_WIND MLC_PRES USA_GUST BOM_GUST BOM_GUST_PER REUNION_GUST REUNION_GUST_PER USA_SEAHGT USA_SEARAD_NE USA_SEARAD_SE USA_SEARAD_SW USA_SEARAD_NW STORM_SPEED STORM_DIR
1950216N26142 1950 49 WP MM NOT_NAMED 1950-08-03 18:00:00 TS 26.1000 141.500 main 982 962 __O___________ -1 26.1000 141.500 0 1000 5 293
1950216N26142 1950 49 WP MM NOT_NAMED 1950-08-03 21:00:00 TS 26.1999 141.235 main 956 931 __P___________ -1 26.1999 141.235 0 1000 6 290
1950216N26142 1950 49 WP MM NOT_NAMED 1950-08-04 00:00:00 TS 26.3000 140.900 main 931 902 __O___________ -1 26.3000 140.900 0 1000 7 286
1950216N26142 1950 49 WP MM NOT_NAMED 1950-08-04 03:00:00 TS 26.4002 140.458 main 902 869 __P___________ -1 26.4002 140.458 0 1000 8 284
1950216N26142 1950 49 WP MM NOT_NAMED 1950-08-04 06:00:00 TS 26.5000 140.000 main 869 846 __O___________ -1 26.5000 140.000 0 1000 7 284
1950216N26142 1950 49 WP MM NOT_NAMED 1950-08-04 09:00:00 TS 26.5847 139.650 main 842 819 __P___________ -1 26.5847 139.650 0 1000 7 288
1950216N26142 1950 49 WP MM NOT_NAMED 1950-08-04 12:00:00 TS 26.7000 139.300 main 819 783 __O___________ -1 26.7000 139.300 0 1000 8 292
1950216N26142 1950 49 WP MM NOT_NAMED 1950-08-04 15:00:00 TS 26.8777 138.835 main 780 745 __P___________ -1 26.8777 138.835 0 1000 9 296
1950216N26142 1950 49 WP MM NOT_NAMED 1950-08-04 18:00:00 TS 27.1000 138.400 main 745 718 __O___________ -1 27.1000 138.400 1 29 1000 8 305
1950216N26142 1950 49 WP MM NOT_NAMED 1950-08-04 21:00:00 TS 27.3046 138.142 main 715 677 __P___________ -1 27.3046 138.142 1 29 1000 7 318
1950216N26142 1950 49 WP MM NOT_NAMED 1950-08-05 00:00:00 TS 27.6000 137.900 main 677 623 __O___________ -1 27.6000 137.900 1 29 1000 10 323
1950216N26142 1950 49 WP MM NOT_NAMED 1950-08-05 03:00:00 TS 28.0702 137.501 main 613 549 __P___________ -1 28.0702 137.501 1 33 999 12 325
1950216N26142 1950 49 WP MM NOT_NAMED 1950-08-05 06:00:00 TS 28.6000 137.100 main 549 499 __O___________ -1 28.6000 137.100 2 38 999 11 329
1950216N26142 1950 49 WP MM NOT_NAMED 1950-08-05 09:00:00 TS 29.0423 136.834 main 499 441 __P___________ -1 29.0423 136.834 2 38 998 10 334
1950216N26142 1950 49 WP MM NOT_NAMED 1950-08-05 12:00:00 TS 29.5000 136.600 main 441 382 __O___________ -1 29.5000 136.600 2 38 998 11 336
1950216N26142 1950 49 WP MM NOT_NAMED 1950-08-05 15:00:00 TS 30.0198 136.329 main 382 312 __P___________ -1 30.0198 136.329 2 38 997 12 335
1950216N26142 1950 49 WP MM NOT_NAMED 1950-08-05 18:00:00 TS 30.6000 136.000 main 312 246 __O___________ -1 30.6000 136.000 2 38 997 14 332
1950216N26142 1950 49 WP MM NOT_NAMED 1950-08-05 21:00:00 TS 31.2577 135.558 main 234 167 __P___________ -1 31.2577 135.558 2 38 996 15 329
1950216N26142 1950 49 WP MM NOT_NAMED 1950-08-06 00:00:00 TS 31.9000 135.100 main 167 105 __O___________ -1 31.9000 135.100 2 38 996 13 329
1950216N26142 1950 49 WP MM NOT_NAMED 1950-08-06 03:00:00 TS 32.3997 134.741 main 100 38 __P___________ -1 32.3997 134.741 2 38 997 12 329
1950216N26142 1950 49 WP MM NOT_NAMED 1950-08-06 06:00:00 TS 32.9000 134.400 main 38 0 __O___________ -1 32.9000 134.400 2 38 998 12 330
1950216N26142 1950 49 WP MM NOT_NAMED 1950-08-06 09:00:00 TS 33.4673 134.021 main 0 0 __P___________ -1 33.4673 134.021 2 30 999 15 333
1950216N26142 1950 49 WP MM NOT_NAMED 1950-08-06 12:00:00 TS 34.2000 133.600 main 9 0 __O___________ -1 34.2000 133.600 1 23 1000 19 337
1950216N26142 1950 49 WP MM NOT_NAMED 1950-08-06 15:00:00 TS 35.2427 133.094 main 0 0 __P___________ -1 35.2427 133.094 1 1001 23 339
1950216N26142 1950 49 WP MM NOT_NAMED 1950-08-06 18:00:00 TS 36.3000 132.600 main 93 93 __O___________ -1 36.3000 132.600 0 1002 20 339
1950216N26142 1950 49 WP MM NOT_NAMED 1950-08-06 21:00:00 TS 37.0670 132.233 main 188 188 __P___________ -1 37.0670 132.233 0 1003 15 338
1950216N26142 1950 49 WP MM NOT_NAMED 1950-08-07 00:00:00 TS 37.7000 131.900 main 230 220 __O___________ -1 37.7000 131.900 0 1004 14 335
1950216N26142 1950 49 WP MM NOT_NAMED 1950-08-07 03:00:00 TS 38.3030 131.520 main 220 212 __P___________ -1 38.3030 131.520 0 1004 14 332
1950216N26142 1950 49 WP MM NOT_NAMED 1950-08-07 06:00:00 TS 38.9000 131.100 main 219 __O___________ -1 38.9000 131.100 0 1005 14 331

デジタル台風データ・検索

IBTrACS Databaseについて

本データベースは、米国NOAAが公開する1842年以降の世界の熱帯低気圧のベストトラックデータアーカイブInternational Best Track Archive for Climate Stewardship (IBTrACS)を、ウェブで閲覧しやすい形式に変換したものです。

最終更新日:2021-10-08